SAS126 EFHK-EKCH
Flight info
| Callsign | SAS126 |
|---|---|
| Flight time | 1h 20m |
| Altitude | 40000 |
| Route | NUNTO Y369 REKDO DCT KOSKA DCT KOTAM L990 EKRAL P605 TIDVU |
| Aircraft | A333/H-SDE3GHIJ2J3J5M1RVWXY/LB2D1 |
Departure
| Time | 2026-04-23 18:09 |
|---|---|
| Airport | Helsinki Vantaa Airport (EFHK) |
Arrival
| Time | 2026-04-23 19:29 |
|---|---|
| Airport | Copenhagen Kastrup Airport (EKCH) |
| Time | Latitude | Longitude | Altitude | Speed | Heading |
|---|---|---|---|---|---|
| 2026-04-23 17:38 | 60.31781 | 24.96261 | 196 ft | 0 kts | 137° |
| 2026-04-23 17:57 | 60.31793 | 24.96238 | 196 ft | 2 kts | 137° |
| 2026-04-23 17:58 | 60.31805 | 24.96217 | 196 ft | 2 kts | 137° |
| 2026-04-23 17:58 | 60.31816 | 24.96195 | 196 ft | 2 kts | 137° |
| 2026-04-23 17:58 | 60.31828 | 24.96174 | 196 ft | 2 kts | 137° |
| 2026-04-23 17:58 | 60.31840 | 24.96152 | 196 ft | 2 kts | 137° |
| 2026-04-23 17:59 | 60.31843 | 24.96145 | 196 ft | 0 kts | 193° |
| 2026-04-23 17:59 | 60.31847 | 24.96149 | 196 ft | 2 kts | 255° |
| 2026-04-23 17:59 | 60.31852 | 24.96170 | 196 ft | 0 kts | 230° |
| 2026-04-23 18:02 | 60.31851 | 24.96167 | 196 ft | 4 kts | 230° |
| 2026-04-23 18:03 | 60.31808 | 24.96066 | 196 ft | 13 kts | 229° |
| 2026-04-23 18:03 | 60.31744 | 24.95919 | 196 ft | 15 kts | 225° |
| 2026-04-23 18:03 | 60.31664 | 24.95755 | 196 ft | 17 kts | 234° |
| 2026-04-23 18:03 | 60.31657 | 24.95578 | 196 ft | 10 kts | 301° |
| 2026-04-23 18:04 | 60.31692 | 24.95453 | 196 ft | 12 kts | 245° |
| 2026-04-23 18:04 | 60.31633 | 24.95305 | 196 ft | 15 kts | 228° |
| 2026-04-23 18:04 | 60.31560 | 24.95142 | 196 ft | 17 kts | 227° |
| 2026-04-23 18:04 | 60.31476 | 24.94959 | 196 ft | 18 kts | 227° |
| 2026-04-23 18:05 | 60.31389 | 24.94763 | 196 ft | 20 kts | 229° |
| 2026-04-23 18:05 | 60.31297 | 24.94551 | 196 ft | 20 kts | 225° |
| 2026-04-23 18:05 | 60.31207 | 24.94368 | 196 ft | 18 kts | 227° |
| 2026-04-23 18:05 | 60.31119 | 24.94174 | 196 ft | 19 kts | 228° |
| 2026-04-23 18:06 | 60.31043 | 24.93988 | 196 ft | 15 kts | 245° |
| 2026-04-23 18:06 | 60.31041 | 24.93869 | 196 ft | 0 kts | 292° |
| 2026-04-23 18:06 | 60.31049 | 24.93827 | 196 ft | 8 kts | 292° |
| 2026-04-23 18:06 | 60.31102 | 24.93726 | 196 ft | 11 kts | 324° |
| 2026-04-23 18:07 | 60.31157 | 24.93712 | 196 ft | 8 kts | 36° |
| 2026-04-23 18:07 | 60.31184 | 24.93762 | 196 ft | 0 kts | 46° |
| 2026-04-23 18:07 | 60.31192 | 24.93778 | 196 ft | 11 kts | 46° |
| 2026-04-23 18:08 | 60.31278 | 24.93962 | 196 ft | 45 kts | 47° |
| 2026-04-23 18:08 | 60.31865 | 24.95257 | 196 ft | 140 kts | 46° |
| 2026-04-23 18:08 | 60.32648 | 24.96963 | 424 ft | 184 kts | 45° |
| 2026-04-23 18:08 | 60.33251 | 24.98289 | 742 ft | 203 kts | 45° |
| 2026-04-23 18:09 | 60.34650 | 25.01394 | 1525 ft | 240 kts | 45° |
| 2026-04-23 18:09 | 60.35398 | 25.03097 | 1997 ft | 248 kts | 45° |
| 2026-04-23 18:09 | 60.36932 | 25.06494 | 3342 ft | 244 kts | 44° |
| 2026-04-23 18:09 | 60.38122 | 25.09095 | 3862 ft | 259 kts | 44° |
| 2026-04-23 18:10 | 60.39347 | 25.11784 | 4061 ft | 257 kts | 44° |
| 2026-04-23 18:10 | 60.40743 | 25.13992 | 4595 ft | 253 kts | 25° |
| 2026-04-23 18:10 | 60.42377 | 25.15005 | 5795 ft | 240 kts | 5° |
| 2026-04-23 18:10 | 60.43461 | 25.14976 | 6578 ft | 233 kts | 355° |
| 2026-04-23 18:11 | 60.45080 | 25.14628 | 7483 ft | 236 kts | 353° |
| 2026-04-23 18:11 | 60.47137 | 25.13012 | 8626 ft | 243 kts | 327° |
| 2026-04-23 18:11 | 60.47960 | 25.11417 | 9168 ft | 251 kts | 313° |
| 2026-04-23 18:11 | 60.48717 | 25.08120 | 9963 ft | 270 kts | 288° |
| 2026-04-23 18:12 | 60.48707 | 25.04107 | 10353 ft | 308 kts | 265° |
| 2026-04-23 18:12 | 60.48225 | 25.01256 | 10410 ft | 338 kts | 250° |
| 2026-04-23 18:12 | 60.45938 | 24.94330 | 11444 ft | 361 kts | 241° |
| 2026-04-23 18:12 | 60.44950 | 24.91508 | 11956 ft | 365 kts | 241° |
| 2026-04-23 18:13 | 60.43475 | 24.87292 | 12742 ft | 369 kts | 242° |
| 2026-04-23 18:13 | 60.41983 | 24.83025 | 13515 ft | 374 kts | 242° |
| 2026-04-23 18:13 | 60.40490 | 24.78754 | 14275 ft | 378 kts | 242° |
| 2026-04-23 18:13 | 60.38961 | 24.74389 | 15038 ft | 382 kts | 242° |
| 2026-04-23 18:14 | 60.37420 | 24.69990 | 15789 ft | 385 kts | 242° |
| 2026-04-23 18:14 | 60.35862 | 24.65551 | 16527 ft | 389 kts | 242° |
| 2026-04-23 18:14 | 60.34285 | 24.61071 | 17249 ft | 393 kts | 242° |
| 2026-04-23 18:14 | 60.32696 | 24.56550 | 17953 ft | 395 kts | 244° |
| 2026-04-23 18:15 | 60.31327 | 24.51783 | 18639 ft | 393 kts | 249° |
| 2026-04-23 18:15 | 60.30002 | 24.46923 | 19338 ft | 396 kts | 250° |
| 2026-04-23 18:15 | 60.28673 | 24.42028 | 19975 ft | 400 kts | 250° |
| 2026-04-23 18:15 | 60.27329 | 24.37081 | 20598 ft | 404 kts | 250° |
| 2026-04-23 18:16 | 60.25968 | 24.32083 | 21200 ft | 408 kts | 250° |
| 2026-04-23 18:16 | 60.24598 | 24.27053 | 21781 ft | 412 kts | 250° |
| 2026-04-23 18:16 | 60.23228 | 24.22036 | 22338 ft | 416 kts | 250° |
| 2026-04-23 18:17 | 60.20403 | 24.11713 | 23407 ft | 425 kts | 250° |
| 2026-04-23 18:17 | 60.18967 | 24.06487 | 23888 ft | 429 kts | 251° |
| 2026-04-23 18:17 | 60.17514 | 24.01205 | 24371 ft | 434 kts | 251° |
| 2026-04-23 18:17 | 60.16034 | 23.95840 | 24659 ft | 444 kts | 251° |
| 2026-04-23 18:18 | 60.14530 | 23.90386 | 25136 ft | 447 kts | 251° |
| 2026-04-23 18:18 | 60.13015 | 23.84914 | 25631 ft | 450 kts | 251° |
| 2026-04-23 18:18 | 60.11485 | 23.79395 | 26066 ft | 455 kts | 252° |
| 2026-04-23 18:18 | 60.09938 | 23.73837 | 26511 ft | 458 kts | 252° |
| 2026-04-23 18:19 | 60.08390 | 23.68292 | 26946 ft | 462 kts | 252° |
| 2026-04-23 18:19 | 60.06814 | 23.62663 | 27373 ft | 465 kts | 252° |
| 2026-04-23 18:19 | 60.05220 | 23.56985 | 27792 ft | 469 kts | 252° |
| 2026-04-23 18:19 | 60.03611 | 23.51271 | 28198 ft | 472 kts | 252° |
| 2026-04-23 18:20 | 60.01989 | 23.45525 | 28599 ft | 476 kts | 252° |
| 2026-04-23 18:20 | 60.00353 | 23.39746 | 28986 ft | 479 kts | 252° |
| 2026-04-23 18:20 | 59.98705 | 23.33936 | 29366 ft | 482 kts | 252° |
| 2026-04-23 18:20 | 59.97041 | 23.28087 | 29737 ft | 485 kts | 252° |
| 2026-04-23 18:21 | 59.95364 | 23.22205 | 30085 ft | 489 kts | 251° |
| 2026-04-23 18:21 | 59.93700 | 23.16381 | 30460 ft | 491 kts | 251° |
| 2026-04-23 18:21 | 59.91997 | 23.10440 | 30822 ft | 494 kts | 251° |
| 2026-04-23 18:21 | 59.90284 | 23.04480 | 31165 ft | 497 kts | 251° |
| 2026-04-23 18:22 | 59.88557 | 22.98489 | 31513 ft | 499 kts | 251° |
| 2026-04-23 18:22 | 59.86816 | 22.92465 | 31880 ft | 501 kts | 251° |
| 2026-04-23 18:22 | 59.85078 | 22.86471 | 32350 ft | 500 kts | 251° |
| 2026-04-23 18:22 | 59.83337 | 22.80476 | 32818 ft | 499 kts | 250° |
| 2026-04-23 18:23 | 59.82188 | 22.76526 | 33106 ft | 498 kts | 250° |
| 2026-04-23 18:23 | 59.78144 | 22.62677 | 34037 ft | 498 kts | 250° |
| 2026-04-23 18:24 | 59.74659 | 22.50815 | 34905 ft | 495 kts | 250° |
| 2026-04-23 18:24 | 59.72921 | 22.44932 | 35338 ft | 493 kts | 250° |
| 2026-04-23 18:24 | 59.71194 | 22.39096 | 35841 ft | 489 kts | 250° |
| 2026-04-23 18:25 | 59.67778 | 22.27572 | 36608 ft | 486 kts | 249° |
| 2026-04-23 18:25 | 59.66062 | 22.21812 | 36969 ft | 484 kts | 249° |
| 2026-04-23 18:25 | 59.64352 | 22.16088 | 37334 ft | 483 kts | 249° |
| 2026-04-23 18:25 | 59.62644 | 22.10384 | 37662 ft | 482 kts | 249° |
| 2026-04-23 18:26 | 59.60933 | 22.04685 | 37979 ft | 480 kts | 248° |
| 2026-04-23 18:26 | 59.59228 | 21.99017 | 38287 ft | 479 kts | 248° |
| 2026-04-23 18:26 | 59.57522 | 21.93362 | 38610 ft | 478 kts | 248° |
| 2026-04-23 18:26 | 59.55820 | 21.87732 | 38822 ft | 479 kts | 247° |
| 2026-04-23 18:27 | 59.54130 | 21.82157 | 39047 ft | 479 kts | 247° |
| 2026-04-23 18:27 | 59.52418 | 21.76526 | 39289 ft | 479 kts | 247° |
| 2026-04-23 18:27 | 59.50704 | 21.70900 | 39514 ft | 479 kts | 246° |
| 2026-04-23 18:27 | 59.48985 | 21.65270 | 39726 ft | 479 kts | 246° |
| 2026-04-23 18:28 | 59.47264 | 21.59648 | 39857 ft | 481 kts | 246° |
| 2026-04-23 18:28 | 59.43786 | 21.48332 | 39910 ft | 486 kts | 245° |
| 2026-04-23 18:29 | 59.40269 | 21.36944 | 39926 ft | 487 kts | 245° |
| 2026-04-23 18:29 | 59.36754 | 21.25620 | 39925 ft | 484 kts | 245° |
| 2026-04-23 18:30 | 59.33269 | 21.14441 | 39927 ft | 481 kts | 245° |
| 2026-04-23 18:30 | 59.29778 | 21.03296 | 39948 ft | 479 kts | 245° |
| 2026-04-23 18:31 | 59.26292 | 20.92181 | 39953 ft | 478 kts | 245° |
| 2026-04-23 18:31 | 59.22839 | 20.81069 | 39958 ft | 478 kts | 245° |
| 2026-04-23 18:32 | 59.19382 | 20.69958 | 39962 ft | 479 kts | 245° |
| 2026-04-23 18:32 | 59.15839 | 20.59025 | 39968 ft | 485 kts | 239° |
| 2026-04-23 18:33 | 59.11426 | 20.48979 | 39986 ft | 489 kts | 234° |
| 2026-04-23 18:33 | 59.06845 | 20.39205 | 40007 ft | 489 kts | 233° |
| 2026-04-23 18:34 | 59.02086 | 20.29722 | 40023 ft | 489 kts | 230° |
| 2026-04-23 18:34 | 58.97248 | 20.20422 | 40036 ft | 489 kts | 230° |
| 2026-04-23 18:35 | 58.92422 | 20.11199 | 40039 ft | 489 kts | 230° |
| 2026-04-23 18:35 | 58.87574 | 20.01963 | 40041 ft | 488 kts | 230° |
| 2026-04-23 18:36 | 58.82725 | 19.92747 | 40038 ft | 489 kts | 230° |
| 2026-04-23 18:36 | 58.77905 | 19.83608 | 40037 ft | 488 kts | 230° |
| 2026-04-23 18:37 | 58.73056 | 19.74429 | 40037 ft | 488 kts | 230° |
| 2026-04-23 18:37 | 58.68207 | 19.65272 | 40042 ft | 488 kts | 230° |
| 2026-04-23 18:38 | 58.63363 | 19.56127 | 40042 ft | 487 kts | 230° |
| 2026-04-23 18:38 | 58.58525 | 19.47010 | 40042 ft | 487 kts | 230° |
| 2026-04-23 18:39 | 58.53688 | 19.37905 | 40044 ft | 486 kts | 230° |
| 2026-04-23 18:39 | 58.48857 | 19.28823 | 40041 ft | 486 kts | 230° |
| 2026-04-23 18:40 | 58.44054 | 19.19785 | 40024 ft | 487 kts | 230° |
| 2026-04-23 18:40 | 58.39219 | 19.10694 | 40023 ft | 487 kts | 230° |
| 2026-04-23 18:41 | 58.34384 | 19.01625 | 40022 ft | 488 kts | 230° |
| 2026-04-23 18:41 | 58.29553 | 18.92554 | 40018 ft | 487 kts | 230° |
| 2026-04-23 18:42 | 58.24764 | 18.83571 | 40018 ft | 486 kts | 230° |
| 2026-04-23 18:42 | 58.19959 | 18.74555 | 40022 ft | 485 kts | 230° |
| 2026-04-23 18:43 | 58.15151 | 18.65555 | 40023 ft | 485 kts | 230° |
| 2026-04-23 18:43 | 58.10344 | 18.56576 | 40022 ft | 485 kts | 229° |
| 2026-04-23 18:44 | 58.05543 | 18.47619 | 40023 ft | 485 kts | 229° |
| 2026-04-23 18:44 | 58.00765 | 18.38721 | 40022 ft | 485 kts | 229° |
| 2026-04-23 18:45 | 57.95960 | 18.29782 | 40023 ft | 485 kts | 229° |
| 2026-04-23 18:45 | 57.91152 | 18.20853 | 40023 ft | 484 kts | 229° |
| 2026-04-23 18:46 | 57.86355 | 18.11962 | 40022 ft | 484 kts | 229° |
| 2026-04-23 18:46 | 57.82591 | 18.05001 | 40022 ft | 484 kts | 229° |
| 2026-04-23 18:47 | 57.77787 | 17.96139 | 40022 ft | 484 kts | 229° |
| 2026-04-23 18:47 | 57.72989 | 17.87320 | 40023 ft | 482 kts | 229° |
| 2026-04-23 18:48 | 57.69192 | 17.80360 | 40021 ft | 482 kts | 229° |
| 2026-04-23 18:48 | 57.64434 | 17.71662 | 40020 ft | 481 kts | 229° |
| 2026-04-23 18:49 | 57.59630 | 17.62902 | 40023 ft | 481 kts | 229° |
| 2026-04-23 18:49 | 57.54874 | 17.54252 | 40024 ft | 481 kts | 229° |
| 2026-04-23 18:50 | 57.50866 | 17.46977 | 40022 ft | 480 kts | 229° |
| 2026-04-23 18:50 | 57.45296 | 17.36926 | 40018 ft | 478 kts | 229° |
| 2026-04-23 18:51 | 57.40513 | 17.28327 | 40023 ft | 478 kts | 229° |
| 2026-04-23 18:51 | 57.35737 | 17.19777 | 40021 ft | 477 kts | 229° |
| 2026-04-23 18:52 | 57.30959 | 17.11250 | 40022 ft | 476 kts | 229° |
| 2026-04-23 18:52 | 57.26216 | 17.02798 | 40025 ft | 476 kts | 229° |
| 2026-04-23 18:53 | 57.22245 | 16.95736 | 40022 ft | 476 kts | 229° |
| 2026-04-23 18:53 | 57.16651 | 16.85805 | 40024 ft | 476 kts | 229° |
| 2026-04-23 18:54 | 57.11911 | 16.77392 | 40027 ft | 476 kts | 229° |
| 2026-04-23 18:54 | 57.07130 | 16.68918 | 40026 ft | 477 kts | 229° |
| 2026-04-23 18:55 | 57.02346 | 16.60446 | 40027 ft | 477 kts | 229° |
| 2026-04-23 18:55 | 56.98371 | 16.53408 | 40027 ft | 477 kts | 229° |
| 2026-04-23 18:56 | 56.93597 | 16.44953 | 40031 ft | 477 kts | 229° |
| 2026-04-23 18:56 | 56.88047 | 16.35115 | 40036 ft | 477 kts | 229° |
| 2026-04-23 18:57 | 56.84079 | 16.28073 | 40037 ft | 478 kts | 228° |
| 2026-04-23 18:57 | 56.81689 | 16.23828 | 39911 ft | 481 kts | 228° |
| 2026-04-23 18:57 | 56.79278 | 16.19546 | 39663 ft | 486 kts | 228° |
| 2026-04-23 18:57 | 56.76017 | 16.13762 | 39330 ft | 490 kts | 228° |
| 2026-04-23 18:58 | 56.73572 | 16.09436 | 39061 ft | 491 kts | 228° |
| 2026-04-23 18:58 | 56.69300 | 16.01903 | 38410 ft | 495 kts | 228° |
| 2026-04-23 18:58 | 56.66820 | 15.97525 | 38050 ft | 496 kts | 228° |
| 2026-04-23 18:59 | 56.64352 | 15.93164 | 37702 ft | 496 kts | 228° |
| 2026-04-23 18:59 | 56.61874 | 15.88784 | 37351 ft | 496 kts | 228° |
| 2026-04-23 18:59 | 56.59401 | 15.84412 | 37001 ft | 495 kts | 228° |
| 2026-04-23 18:59 | 56.56938 | 15.80055 | 36652 ft | 495 kts | 228° |
| 2026-04-23 19:00 | 56.54472 | 15.75692 | 36301 ft | 494 kts | 228° |
| 2026-04-23 19:00 | 56.52008 | 15.71328 | 35951 ft | 494 kts | 228° |
| 2026-04-23 19:00 | 56.49580 | 15.67024 | 35606 ft | 495 kts | 228° |
| 2026-04-23 19:00 | 56.47125 | 15.62655 | 35256 ft | 495 kts | 228° |
| 2026-04-23 19:01 | 56.44670 | 15.58270 | 34907 ft | 496 kts | 228° |
| 2026-04-23 19:01 | 56.42216 | 15.53880 | 34558 ft | 498 kts | 228° |
| 2026-04-23 19:01 | 56.39751 | 15.49468 | 34209 ft | 498 kts | 228° |
| 2026-04-23 19:01 | 56.37289 | 15.45057 | 33859 ft | 499 kts | 228° |
| 2026-04-23 19:02 | 56.34824 | 15.40645 | 33510 ft | 499 kts | 228° |
| 2026-04-23 19:02 | 56.32355 | 15.36237 | 33160 ft | 500 kts | 228° |
| 2026-04-23 19:02 | 56.29885 | 15.31837 | 32822 ft | 499 kts | 228° |
| 2026-04-23 19:02 | 56.27414 | 15.27447 | 32472 ft | 499 kts | 228° |
| 2026-04-23 19:03 | 56.21973 | 15.17841 | 31705 ft | 500 kts | 228° |
| 2026-04-23 19:03 | 56.19482 | 15.13480 | 31356 ft | 501 kts | 228° |
| 2026-04-23 19:03 | 56.16984 | 15.09114 | 31006 ft | 501 kts | 228° |
| 2026-04-23 19:04 | 56.14486 | 15.04759 | 30656 ft | 500 kts | 228° |
| 2026-04-23 19:04 | 56.11992 | 15.00419 | 30305 ft | 498 kts | 228° |
| 2026-04-23 19:04 | 56.09508 | 14.96090 | 29954 ft | 495 kts | 228° |
| 2026-04-23 19:04 | 56.07047 | 14.91794 | 29602 ft | 492 kts | 228° |
| 2026-04-23 19:05 | 56.04604 | 14.87529 | 29227 ft | 490 kts | 228° |
| 2026-04-23 19:05 | 56.02165 | 14.83271 | 28800 ft | 488 kts | 228° |
| 2026-04-23 19:05 | 55.99743 | 14.79041 | 28374 ft | 485 kts | 228° |
| 2026-04-23 19:05 | 55.97342 | 14.74842 | 27948 ft | 481 kts | 228° |
| 2026-04-23 19:06 | 55.94962 | 14.70677 | 27522 ft | 477 kts | 228° |
| 2026-04-23 19:06 | 55.92604 | 14.66543 | 27096 ft | 473 kts | 227° |
| 2026-04-23 19:06 | 55.90267 | 14.62439 | 26670 ft | 470 kts | 227° |
| 2026-04-23 19:06 | 55.87947 | 14.58359 | 26243 ft | 467 kts | 227° |
| 2026-04-23 19:07 | 55.85675 | 14.54357 | 25823 ft | 464 kts | 227° |
| 2026-04-23 19:07 | 55.83388 | 14.50325 | 25397 ft | 461 kts | 227° |
| 2026-04-23 19:07 | 55.81114 | 14.46311 | 24971 ft | 459 kts | 227° |
| 2026-04-23 19:07 | 55.79618 | 14.43669 | 24689 ft | 457 kts | 227° |
| 2026-04-23 19:08 | 55.76606 | 14.38347 | 24118 ft | 454 kts | 227° |
| 2026-04-23 19:08 | 55.75125 | 14.35728 | 23835 ft | 452 kts | 227° |
| 2026-04-23 19:08 | 55.72903 | 14.31802 | 23390 ft | 450 kts | 227° |
| 2026-04-23 19:08 | 55.70689 | 14.27887 | 22946 ft | 447 kts | 227° |
| 2026-04-23 19:09 | 55.67777 | 14.22747 | 22348 ft | 443 kts | 227° |
| 2026-04-23 19:09 | 55.66304 | 14.20148 | 22043 ft | 440 kts | 227° |
| 2026-04-23 19:09 | 55.64167 | 14.16390 | 21599 ft | 437 kts | 227° |
| 2026-04-23 19:09 | 55.62013 | 14.12622 | 21147 ft | 433 kts | 227° |
| 2026-04-23 19:10 | 55.59871 | 14.08897 | 20696 ft | 430 kts | 227° |
| 2026-04-23 19:10 | 55.57744 | 14.05219 | 20246 ft | 426 kts | 227° |
| 2026-04-23 19:10 | 55.55629 | 14.01583 | 19795 ft | 423 kts | 227° |
| 2026-04-23 19:10 | 55.53527 | 13.97984 | 19345 ft | 419 kts | 227° |
| 2026-04-23 19:11 | 55.51434 | 13.94421 | 18893 ft | 416 kts | 227° |
| 2026-04-23 19:11 | 55.49356 | 13.90895 | 18442 ft | 412 kts | 227° |
| 2026-04-23 19:11 | 55.47291 | 13.87400 | 17991 ft | 409 kts | 227° |
| 2026-04-23 19:11 | 55.45242 | 13.83942 | 17540 ft | 406 kts | 227° |
| 2026-04-23 19:12 | 55.43235 | 13.80565 | 17095 ft | 403 kts | 227° |
| 2026-04-23 19:12 | 55.41216 | 13.77171 | 16644 ft | 399 kts | 228° |
| 2026-04-23 19:12 | 55.39436 | 13.73497 | 16192 ft | 392 kts | 238° |
| 2026-04-23 19:12 | 55.37865 | 13.69609 | 15742 ft | 388 kts | 240° |
| 2026-04-23 19:13 | 55.36346 | 13.65710 | 15291 ft | 385 kts | 240° |
| 2026-04-23 19:13 | 55.34846 | 13.61834 | 14840 ft | 382 kts | 240° |
| 2026-04-23 19:13 | 55.33356 | 13.57990 | 14389 ft | 379 kts | 240° |
| 2026-04-23 19:13 | 55.32010 | 13.54057 | 13935 ft | 371 kts | 250° |
| 2026-04-23 19:14 | 55.31034 | 13.49900 | 13487 ft | 366 kts | 254° |
| 2026-04-23 19:14 | 55.30154 | 13.45729 | 13037 ft | 363 kts | 255° |
| 2026-04-23 19:14 | 55.29293 | 13.41573 | 12586 ft | 361 kts | 255° |
| 2026-04-23 19:14 | 55.28439 | 13.37440 | 12134 ft | 358 kts | 255° |
| 2026-04-23 19:15 | 55.27602 | 13.33398 | 11689 ft | 356 kts | 255° |
| 2026-04-23 19:15 | 55.26759 | 13.29330 | 11238 ft | 354 kts | 255° |
| 2026-04-23 19:15 | 55.25918 | 13.25287 | 10787 ft | 351 kts | 255° |
| 2026-04-23 19:15 | 55.25083 | 13.21267 | 10336 ft | 349 kts | 255° |
| 2026-04-23 19:16 | 55.24252 | 13.17277 | 9885 ft | 347 kts | 255° |
| 2026-04-23 19:16 | 55.23426 | 13.13312 | 9434 ft | 345 kts | 255° |
| 2026-04-23 19:17 | 55.19508 | 12.94425 | 7088 ft | 313 kts | 255° |
| 2026-04-23 19:17 | 55.18783 | 12.90831 | 6637 ft | 313 kts | 255° |
| 2026-04-23 19:18 | 55.18063 | 12.87234 | 6187 ft | 312 kts | 255° |
| 2026-04-23 19:18 | 55.17378 | 12.83634 | 5733 ft | 310 kts | 261° |
| 2026-04-23 19:18 | 55.17311 | 12.79951 | 5279 ft | 300 kts | 284° |
| 2026-04-23 19:18 | 55.18044 | 12.76641 | 4839 ft | 294 kts | 301° |
| 2026-04-23 19:19 | 55.20008 | 12.71046 | 3916 ft | 254 kts | 305° |
| 2026-04-23 19:19 | 55.20945 | 12.68468 | 3464 ft | 247 kts | 305° |
| 2026-04-23 19:20 | 55.22505 | 12.64198 | 3135 ft | 246 kts | 305° |
| 2026-04-23 19:20 | 55.23715 | 12.60889 | 3101 ft | 239 kts | 305° |
| 2026-04-23 19:20 | 55.24603 | 12.58464 | 3099 ft | 240 kts | 305° |
| 2026-04-23 19:20 | 55.25505 | 12.56001 | 3099 ft | 240 kts | 305° |
| 2026-04-23 19:21 | 55.26406 | 12.53542 | 3100 ft | 240 kts | 305° |
| 2026-04-23 19:21 | 55.28644 | 12.49417 | 3101 ft | 236 kts | 339° |
| 2026-04-23 19:21 | 55.30216 | 12.48510 | 3113 ft | 239 kts | 345° |
| 2026-04-23 19:22 | 55.31817 | 12.47702 | 3111 ft | 238 kts | 345° |
| 2026-04-23 19:22 | 55.32872 | 12.47176 | 3102 ft | 238 kts | 345° |
| 2026-04-23 19:22 | 55.36599 | 12.45343 | 3087 ft | 234 kts | 345° |
| 2026-04-23 19:23 | 55.38145 | 12.44591 | 3083 ft | 221 kts | 345° |
| 2026-04-23 19:23 | 55.39562 | 12.43899 | 3080 ft | 207 kts | 345° |
| 2026-04-23 19:23 | 55.40483 | 12.43448 | 3081 ft | 202 kts | 345° |
| 2026-04-23 19:24 | 55.43174 | 12.42129 | 3088 ft | 198 kts | 345° |
| 2026-04-23 19:24 | 55.44864 | 12.41314 | 3115 ft | 182 kts | 348° |
| 2026-04-23 19:24 | 55.46876 | 12.42013 | 3094 ft | 180 kts | 26° |
| 2026-04-23 19:25 | 55.49272 | 12.45088 | 2608 ft | 180 kts | 38° |
| 2026-04-23 19:25 | 55.51093 | 12.47835 | 2165 ft | 166 kts | 39° |
| 2026-04-23 19:26 | 55.52761 | 12.50395 | 1737 ft | 149 kts | 38° |
| 2026-04-23 19:26 | 55.53517 | 12.51559 | 1525 ft | 140 kts | 38° |
| 2026-04-23 19:27 | 55.54729 | 12.53412 | 1182 ft | 136 kts | 37° |
| 2026-04-23 19:27 | 55.56870 | 12.56709 | 659 ft | 140 kts | 40° |
| 2026-04-23 19:28 | 55.58329 | 12.58962 | 367 ft | 140 kts | 40° |
| 2026-04-23 19:28 | 55.59759 | 12.61201 | 42 ft | 124 kts | 39° |
| 2026-04-23 19:29 | 55.60306 | 12.62022 | 35 ft | 76 kts | 41° |
| 2026-04-23 19:29 | 55.60811 | 12.62770 | 34 ft | 32 kts | 26° |
| 2026-04-23 19:30 | 55.61166 | 12.62981 | 34 ft | 22 kts | 39° |
| 2026-04-23 19:30 | 55.61277 | 12.63147 | 34 ft | 21 kts | 40° |
| 2026-04-23 19:30 | 55.61491 | 12.63484 | 34 ft | 21 kts | 40° |
| 2026-04-23 19:31 | 55.61600 | 12.63647 | 34 ft | 21 kts | 41° |
| 2026-04-23 19:31 | 55.61707 | 12.63814 | 34 ft | 21 kts | 41° |
| 2026-04-23 19:31 | 55.61816 | 12.63983 | 34 ft | 21 kts | 43° |
| 2026-04-23 19:31 | 55.61939 | 12.64127 | 34 ft | 22 kts | 24° |
| 2026-04-23 19:32 | 55.62064 | 12.64231 | 34 ft | 20 kts | 25° |
| 2026-04-23 19:32 | 55.62133 | 12.64290 | 34 ft | 0 kts | 25° |
| 2026-04-23 19:33 | 55.62177 | 12.64326 | 34 ft | 12 kts | 25° |
| 2026-04-23 19:34 | 55.62266 | 12.64389 | 34 ft | 15 kts | 16° |
| 2026-04-23 19:34 | 55.62376 | 12.64443 | 34 ft | 16 kts | 14° |
| 2026-04-23 19:34 | 55.62529 | 12.64211 | 34 ft | 9 kts | 324° |
| 2026-04-23 19:35 | 55.62574 | 12.64223 | 34 ft | 8 kts | 26° |
| 2026-04-23 19:35 | 55.62594 | 12.64279 | 34 ft | 7 kts | 70° |
| 2026-04-23 19:35 | 55.62616 | 12.64373 | 34 ft | 6 kts | 66° |
| 2026-04-23 19:35 | 55.62626 | 12.64410 | 34 ft | 0 kts | 67° |